Airfield :
LOGIN :

Register | Disclaimer

   EN    FR    IT 

 










Legend :    VFR   Marginal VFR   IFR   Intensive IFR   Very Intensive IFR
Visi :
Ceiling :
>= 8 km
>= 3000ft
5 to 8 km
1000 to 3000 ft
1500m to 5 km
500 to 1000 ft
800 to 1500m
200 to 500 ft
< 800m
< 200 ft
Symbols :   Thunderstorms  Fog  Heavy snow  Heavy precipitations  Wind > 20 kt
SIGMETs :     Misc.  Thunderstorms  Icing  Turbulence  Mountain Waves  Volcanic Ashes







- Airport Elevation : 32 ft
- IATA code : LKZ


EGUL - RAF Lakenheath

CURRENT METAR :
  • 182256Z AUTO 21017G24KT 9999 BKN180 18/13 A2984 RMK AO2 SLP108 T01830132 $

EXPIRED METARs :
  • 182156Z AUTO 21016G22KT 9999 FEW190 18/13 A2983 RMK AO2 SLP104 T01820131 $
  • 182056Z AUTO 21013KT 9999 CLR 18/13 A2983 RMK AO2 SLP104 60000 T01800133 51007 $

TAF TAF EGUL
Valid from the 18 at 20:00 until the 20 at 02:00 UTC


182006Z 1820/2002 21012KT 9999 SCT020 QNH2985INS
BECMG 1904/1905 20010G20KT 9999 BKN020 QNH2984INS
TEMPO 1906/1909 20015G25KT
BECMG 1908/1909 20025G35KT 9999 BKN050 QNH2979INS
TEMPO 1912/1916 21030G40KT
BECMG 1923/1924 22012KT 9999 SCT050 QNH2991INS TX23/1913Z TN16/1905Z
No reported NOTAMs for that airfield.
1 SIGMET reported for the London FIR (EGTT) :
 
Severe mountain waves
EGTT SIGMET 10 VALID 182200/190200 EGRR
EGTT LONDON FIR SEV MTW FCST WI N5500 E00203 - N5221 E00156 - N5039 W00347 - N5218 W00357 - N5500 W00238 - N5500 E00203 FL040/240 STNR WKN=



MET'MAP, your aeronautical weather chart ! - Copyright ORBIFLY December 2007 - Disclaimer

ORBIFLY MET'MAP TEAM :

Programming & Development : Alexandra Zaïnal
Concept & Development : Baudouin d'Aumeries
Co-Development & Prog : Marc-Olivier Méhu
Technical & hardware support : Manuel Goepfert

Contact : metmap@orbifly.com




SOURCES & CREDITS :

   NOAA